Terminal Aerodrome Forecast
Issued by NWS

Home | Current Version | Previous Version | Text Only | Print | Product List | Glossary On
Versions: 1 2 3 4 5 6 7 8 9 10 11 12
401
FTUS46 KSTO 221120
TAFSCK
TAF
KSCK 221120Z 2212/2312 15006KT P6SM FEW120
      TEMPO 2215/2217 BKN030
     FM221700 26012KT P6SM BKN030
     FM222100 29014G25KT P6SM VCTS BKN050CB
     FM230300 28008KT P6SM SKC=

USA.gov is the U.S. government's official web portal to all federal, state and local government web resources and services.